AAL9 KABQ-KDFW
Flight info
| Callsign | AAL9 |
|---|---|
| Flight time | 1h 20m |
| Altitude | 37000 |
| Route | DOOKK3 TXO TURKI JOVEM6 |
| Aircraft | B38M/M-SDE1FGHILORVWXY/HB1 |
Departure
| Time | 2026-05-06 18:06 |
|---|---|
| Airport | Albuquerque International Sunport (KABQ) |
Arrival
| Time | 2026-05-06 19:26 |
|---|---|
| Airport | Dallas Fort Worth International Airport (KDFW) |
| Time | Latitude | Longitude | Altitude | Speed | Heading |
|---|---|---|---|---|---|
| 2026-05-06 17:46 | 35.04686 | -106.61692 | 5328 ft | 0 kts | 13° |
| 2026-05-06 17:56 | 35.04682 | -106.61693 | 5317 ft | 2 kts | 13° |
| 2026-05-06 17:56 | 35.04667 | -106.61698 | 5323 ft | 2 kts | 13° |
| 2026-05-06 17:57 | 35.04652 | -106.61704 | 5322 ft | 2 kts | 41° |
| 2026-05-06 17:57 | 35.04642 | -106.61720 | 5319 ft | 2 kts | 91° |
| 2026-05-06 18:00 | 35.04642 | -106.61709 | 5319 ft | 4 kts | 92° |
| 2026-05-06 18:00 | 35.04639 | -106.61645 | 5329 ft | 11 kts | 94° |
| 2026-05-06 18:01 | 35.04625 | -106.61533 | 5332 ft | 16 kts | 103° |
| 2026-05-06 18:01 | 35.04594 | -106.61373 | 5334 ft | 22 kts | 100° |
| 2026-05-06 18:01 | 35.04588 | -106.61164 | 5318 ft | 28 kts | 94° |
| 2026-05-06 18:01 | 35.04577 | -106.60908 | 5328 ft | 32 kts | 88° |
| 2026-05-06 18:02 | 35.04578 | -106.60624 | 5322 ft | 35 kts | 92° |
| 2026-05-06 18:02 | 35.04573 | -106.60325 | 5329 ft | 36 kts | 94° |
| 2026-05-06 18:02 | 35.04576 | -106.60013 | 5327 ft | 38 kts | 89° |
| 2026-05-06 18:02 | 35.04581 | -106.59689 | 5333 ft | 39 kts | 90° |
| 2026-05-06 18:03 | 35.04583 | -106.59355 | 5334 ft | 40 kts | 89° |
| 2026-05-06 18:03 | 35.04583 | -106.59012 | 5320 ft | 41 kts | 90° |
| 2026-05-06 18:03 | 35.04579 | -106.58661 | 5332 ft | 42 kts | 90° |
| 2026-05-06 18:03 | 35.04576 | -106.58302 | 5330 ft | 42 kts | 90° |
| 2026-05-06 18:04 | 35.04574 | -106.57939 | 5331 ft | 39 kts | 91° |
| 2026-05-06 18:04 | 35.04574 | -106.57734 | 5330 ft | 13 kts | 87° |
| 2026-05-06 18:04 | 35.04560 | -106.57615 | 5318 ft | 17 kts | 121° |
| 2026-05-06 18:04 | 35.04478 | -106.57571 | 5320 ft | 13 kts | 182° |
| 2026-05-06 18:05 | 35.04407 | -106.57609 | 5318 ft | 3 kts | 263° |
| 2026-05-06 18:05 | 35.04407 | -106.57649 | 5319 ft | 21 kts | 270° |
| 2026-05-06 18:05 | 35.04409 | -106.58118 | 5323 ft | 88 kts | 271° |
| 2026-05-06 18:05 | 35.04416 | -106.59101 | 5321 ft | 142 kts | 271° |
| 2026-05-06 18:06 | 35.04342 | -106.60446 | 5581 ft | 171 kts | 257° |
| 2026-05-06 18:06 | 35.03981 | -106.61914 | 6045 ft | 188 kts | 257° |
| 2026-05-06 18:06 | 35.03393 | -106.63272 | 6832 ft | 181 kts | 224° |
| 2026-05-06 18:06 | 35.02481 | -106.64238 | 7557 ft | 171 kts | 223° |
| 2026-05-06 18:07 | 35.01549 | -106.65157 | 7937 ft | 175 kts | 222° |
| 2026-05-06 18:07 | 35.00588 | -106.66104 | 8300 ft | 180 kts | 222° |
| 2026-05-06 18:07 | 34.99593 | -106.67090 | 8613 ft | 190 kts | 223° |
| 2026-05-06 18:07 | 34.98532 | -106.68145 | 8882 ft | 204 kts | 223° |
| 2026-05-06 18:08 | 34.97385 | -106.69283 | 9105 ft | 223 kts | 222° |
| 2026-05-06 18:08 | 34.96106 | -106.70551 | 9107 ft | 252 kts | 221° |
| 2026-05-06 18:08 | 34.94555 | -106.71760 | 9110 ft | 280 kts | 199° |
| 2026-05-06 18:08 | 34.92622 | -106.71946 | 9105 ft | 289 kts | 170° |
| 2026-05-06 18:09 | 34.90788 | -106.70940 | 9494 ft | 295 kts | 141° |
| 2026-05-06 18:09 | 34.89289 | -106.69197 | 10090 ft | 302 kts | 135° |
| 2026-05-06 18:09 | 34.87844 | -106.67280 | 10501 ft | 313 kts | 133° |
| 2026-05-06 18:09 | 34.86334 | -106.65283 | 10784 ft | 329 kts | 135° |
| 2026-05-06 18:10 | 34.84716 | -106.63236 | 11125 ft | 341 kts | 135° |
| 2026-05-06 18:10 | 34.83095 | -106.61084 | 11581 ft | 349 kts | 126° |
| 2026-05-06 18:10 | 34.82090 | -106.58383 | 12118 ft | 355 kts | 104° |
| 2026-05-06 18:10 | 34.81568 | -106.55468 | 12663 ft | 359 kts | 100° |
| 2026-05-06 18:11 | 34.81138 | -106.52455 | 13222 ft | 363 kts | 98° |
| 2026-05-06 18:11 | 34.80798 | -106.49391 | 13774 ft | 367 kts | 99° |
| 2026-05-06 18:11 | 34.80347 | -106.46326 | 14281 ft | 371 kts | 101° |
| 2026-05-06 18:11 | 34.79898 | -106.43292 | 14800 ft | 374 kts | 99° |
| 2026-05-06 18:12 | 34.79493 | -106.40150 | 15329 ft | 378 kts | 98° |
| 2026-05-06 18:12 | 34.79096 | -106.36973 | 15793 ft | 382 kts | 99° |
| 2026-05-06 18:12 | 34.78669 | -106.33773 | 16318 ft | 384 kts | 99° |
| 2026-05-06 18:12 | 34.78227 | -106.30558 | 16828 ft | 387 kts | 99° |
| 2026-05-06 18:13 | 34.77792 | -106.27314 | 17314 ft | 390 kts | 99° |
| 2026-05-06 18:13 | 34.77365 | -106.24085 | 17801 ft | 393 kts | 99° |
| 2026-05-06 18:13 | 34.76924 | -106.20794 | 18287 ft | 396 kts | 99° |
| 2026-05-06 18:13 | 34.76475 | -106.17478 | 18714 ft | 399 kts | 99° |
| 2026-05-06 18:14 | 34.76023 | -106.14137 | 19151 ft | 401 kts | 99° |
| 2026-05-06 18:14 | 34.75670 | -106.10767 | 19575 ft | 403 kts | 92° |
| 2026-05-06 18:14 | 34.75565 | -106.07356 | 19995 ft | 405 kts | 91° |
| 2026-05-06 18:14 | 34.75472 | -106.03919 | 20415 ft | 407 kts | 91° |
| 2026-05-06 18:15 | 34.75367 | -106.00468 | 20839 ft | 409 kts | 92° |
| 2026-05-06 18:15 | 34.75251 | -105.96997 | 21247 ft | 412 kts | 92° |
| 2026-05-06 18:15 | 34.75138 | -105.93502 | 21644 ft | 415 kts | 92° |
| 2026-05-06 18:15 | 34.75030 | -105.90037 | 22023 ft | 418 kts | 92° |
| 2026-05-06 18:16 | 34.74918 | -105.86497 | 22418 ft | 420 kts | 92° |
| 2026-05-06 18:16 | 34.74800 | -105.82938 | 22812 ft | 423 kts | 92° |
| 2026-05-06 18:16 | 34.74681 | -105.79356 | 23208 ft | 425 kts | 92° |
| 2026-05-06 18:16 | 34.74562 | -105.75761 | 23594 ft | 427 kts | 92° |
| 2026-05-06 18:17 | 34.74442 | -105.72140 | 23906 ft | 430 kts | 93° |
| 2026-05-06 18:17 | 34.74318 | -105.68498 | 24211 ft | 433 kts | 93° |
| 2026-05-06 18:17 | 34.74194 | -105.64871 | 24488 ft | 436 kts | 93° |
| 2026-05-06 18:17 | 34.74067 | -105.61172 | 24739 ft | 441 kts | 94° |
| 2026-05-06 18:18 | 34.73937 | -105.57420 | 24865 ft | 448 kts | 96° |
| 2026-05-06 18:18 | 34.73801 | -105.53601 | 24981 ft | 456 kts | 96° |
| 2026-05-06 18:18 | 34.73664 | -105.49713 | 25125 ft | 464 kts | 96° |
| 2026-05-06 18:18 | 34.73525 | -105.45776 | 25325 ft | 470 kts | 96° |
| 2026-05-06 18:19 | 34.73382 | -105.41788 | 25539 ft | 475 kts | 96° |
| 2026-05-06 18:19 | 34.73235 | -105.37759 | 25763 ft | 479 kts | 96° |
| 2026-05-06 18:19 | 34.73086 | -105.33691 | 25975 ft | 484 kts | 97° |
| 2026-05-06 18:19 | 34.72935 | -105.29593 | 26215 ft | 487 kts | 97° |
| 2026-05-06 18:20 | 34.72784 | -105.25516 | 26460 ft | 492 kts | 97° |
| 2026-05-06 18:20 | 34.72626 | -105.21341 | 26675 ft | 497 kts | 97° |
| 2026-05-06 18:20 | 34.72466 | -105.17135 | 26904 ft | 501 kts | 98° |
| 2026-05-06 18:20 | 34.72303 | -105.12883 | 27154 ft | 505 kts | 98° |
| 2026-05-06 18:21 | 34.72138 | -105.08608 | 27396 ft | 508 kts | 98° |
| 2026-05-06 18:21 | 34.71970 | -105.04306 | 27630 ft | 512 kts | 98° |
| 2026-05-06 18:21 | 34.71799 | -104.99969 | 27885 ft | 515 kts | 98° |
| 2026-05-06 18:21 | 34.71626 | -104.95611 | 28151 ft | 518 kts | 98° |
| 2026-05-06 18:22 | 34.71450 | -104.91218 | 28402 ft | 522 kts | 99° |
| 2026-05-06 18:22 | 34.71274 | -104.86859 | 28639 ft | 526 kts | 99° |
| 2026-05-06 18:22 | 34.71092 | -104.82411 | 28890 ft | 529 kts | 99° |
| 2026-05-06 18:22 | 34.70907 | -104.77928 | 29133 ft | 533 kts | 99° |
| 2026-05-06 18:23 | 34.70720 | -104.73416 | 29387 ft | 536 kts | 99° |
| 2026-05-06 18:23 | 34.70530 | -104.68877 | 29639 ft | 539 kts | 100° |
| 2026-05-06 18:23 | 34.70337 | -104.64311 | 29884 ft | 542 kts | 100° |
| 2026-05-06 18:23 | 34.69972 | -104.59775 | 30103 ft | 540 kts | 105° |
| 2026-05-06 18:24 | 34.69470 | -104.55243 | 30307 ft | 542 kts | 106° |
| 2026-05-06 18:24 | 34.68956 | -104.50763 | 30496 ft | 544 kts | 106° |
| 2026-05-06 18:24 | 34.68454 | -104.46195 | 30695 ft | 547 kts | 105° |
| 2026-05-06 18:24 | 34.67963 | -104.41594 | 30902 ft | 550 kts | 105° |
| 2026-05-06 18:25 | 34.67458 | -104.36983 | 31105 ft | 552 kts | 106° |
| 2026-05-06 18:25 | 34.66935 | -104.32354 | 31322 ft | 554 kts | 106° |
| 2026-05-06 18:25 | 34.66412 | -104.27702 | 31540 ft | 557 kts | 106° |
| 2026-05-06 18:25 | 34.65895 | -104.23027 | 31713 ft | 559 kts | 106° |
| 2026-05-06 18:26 | 34.65374 | -104.18340 | 31920 ft | 562 kts | 107° |
| 2026-05-06 18:26 | 34.64849 | -104.13696 | 32149 ft | 564 kts | 107° |
| 2026-05-06 18:26 | 34.64312 | -104.08969 | 32380 ft | 566 kts | 107° |
| 2026-05-06 18:26 | 34.63776 | -104.04230 | 32624 ft | 568 kts | 107° |
| 2026-05-06 18:27 | 34.63237 | -103.99470 | 32853 ft | 570 kts | 107° |
| 2026-05-06 18:27 | 34.62693 | -103.94698 | 33159 ft | 570 kts | 107° |
| 2026-05-06 18:27 | 34.62147 | -103.89931 | 33495 ft | 570 kts | 107° |
| 2026-05-06 18:27 | 34.61600 | -103.85179 | 33833 ft | 569 kts | 107° |
| 2026-05-06 18:28 | 34.61052 | -103.80421 | 34112 ft | 569 kts | 107° |
| 2026-05-06 18:28 | 34.60502 | -103.75667 | 34405 ft | 569 kts | 107° |
| 2026-05-06 18:28 | 34.59957 | -103.70978 | 34673 ft | 568 kts | 108° |
| 2026-05-06 18:28 | 34.59404 | -103.66233 | 34957 ft | 568 kts | 108° |
| 2026-05-06 18:29 | 34.58849 | -103.61484 | 35254 ft | 568 kts | 108° |
| 2026-05-06 18:29 | 34.58292 | -103.56735 | 35526 ft | 568 kts | 108° |
| 2026-05-06 18:29 | 34.57733 | -103.51993 | 35795 ft | 568 kts | 108° |
| 2026-05-06 18:29 | 34.57172 | -103.47244 | 36058 ft | 569 kts | 108° |
| 2026-05-06 18:30 | 34.56608 | -103.42495 | 36278 ft | 569 kts | 108° |
| 2026-05-06 18:30 | 34.56043 | -103.37740 | 36498 ft | 570 kts | 108° |
| 2026-05-06 18:30 | 34.55483 | -103.33045 | 36764 ft | 570 kts | 108° |
| 2026-05-06 18:30 | 34.54914 | -103.28288 | 36949 ft | 569 kts | 108° |
| 2026-05-06 18:31 | 34.53780 | -103.18843 | 36982 ft | 563 kts | 108° |
| 2026-05-06 18:31 | 34.52641 | -103.09472 | 36983 ft | 561 kts | 109° |
| 2026-05-06 18:32 | 34.51504 | -103.00139 | 37009 ft | 559 kts | 109° |
| 2026-05-06 18:32 | 34.50367 | -102.90884 | 37006 ft | 558 kts | 109° |
| 2026-05-06 18:33 | 34.49278 | -102.81560 | 37016 ft | 561 kts | 107° |
| 2026-05-06 18:33 | 34.48306 | -102.72175 | 37026 ft | 562 kts | 107° |
| 2026-05-06 18:34 | 34.47337 | -102.62763 | 37019 ft | 563 kts | 107° |
| 2026-05-06 18:34 | 34.46365 | -102.53356 | 37018 ft | 562 kts | 107° |
| 2026-05-06 18:35 | 34.45380 | -102.44016 | 37025 ft | 563 kts | 107° |
| 2026-05-06 18:35 | 34.44394 | -102.34603 | 37018 ft | 564 kts | 107° |
| 2026-05-06 18:36 | 34.43367 | -102.25181 | 37016 ft | 564 kts | 107° |
| 2026-05-06 18:36 | 34.42376 | -102.15753 | 37017 ft | 564 kts | 107° |
| 2026-05-06 18:37 | 34.41351 | -102.06329 | 37018 ft | 564 kts | 107° |
| 2026-05-06 18:37 | 34.40338 | -101.96959 | 37029 ft | 566 kts | 107° |
| 2026-05-06 18:38 | 34.39309 | -101.87543 | 37044 ft | 563 kts | 107° |
| 2026-05-06 18:38 | 34.38273 | -101.78143 | 37050 ft | 563 kts | 107° |
| 2026-05-06 18:39 | 34.37233 | -101.68755 | 37054 ft | 563 kts | 108° |
| 2026-05-06 18:40 | 34.35665 | -101.54743 | 37062 ft | 563 kts | 108° |
| 2026-05-06 18:40 | 34.34606 | -101.45362 | 37066 ft | 563 kts | 108° |
| 2026-05-06 18:41 | 34.33541 | -101.35989 | 37061 ft | 563 kts | 108° |
| 2026-05-06 18:41 | 34.32468 | -101.26610 | 37074 ft | 562 kts | 108° |
| 2026-05-06 18:42 | 34.31388 | -101.17236 | 37060 ft | 562 kts | 108° |
| 2026-05-06 18:42 | 34.30309 | -101.07937 | 37061 ft | 562 kts | 108° |
| 2026-05-06 18:43 | 34.29224 | -100.98653 | 37071 ft | 563 kts | 108° |
| 2026-05-06 18:43 | 34.28124 | -100.89288 | 37070 ft | 563 kts | 108° |
| 2026-05-06 18:44 | 34.27015 | -100.79926 | 37076 ft | 562 kts | 108° |
| 2026-05-06 18:44 | 34.25901 | -100.70571 | 37086 ft | 561 kts | 108° |
| 2026-05-06 18:45 | 34.24789 | -100.61303 | 37072 ft | 560 kts | 108° |
| 2026-05-06 18:45 | 34.23665 | -100.51995 | 37067 ft | 560 kts | 108° |
| 2026-05-06 18:46 | 34.22533 | -100.42686 | 37071 ft | 560 kts | 108° |
| 2026-05-06 18:46 | 34.21395 | -100.33380 | 37073 ft | 560 kts | 108° |
| 2026-05-06 18:47 | 34.20029 | -100.24189 | 37108 ft | 541 kts | 122° |
| 2026-05-06 18:47 | 34.17508 | -100.15747 | 37082 ft | 537 kts | 123° |
| 2026-05-06 18:48 | 34.14935 | -100.07279 | 37079 ft | 538 kts | 122° |
| 2026-05-06 18:48 | 34.12385 | -99.98788 | 37079 ft | 537 kts | 123° |
| 2026-05-06 18:49 | 34.09819 | -99.90385 | 37073 ft | 538 kts | 122° |
| 2026-05-06 18:49 | 34.07256 | -99.81921 | 37057 ft | 536 kts | 123° |
| 2026-05-06 18:50 | 34.04669 | -99.73473 | 37062 ft | 537 kts | 123° |
| 2026-05-06 18:50 | 34.02090 | -99.65026 | 37052 ft | 537 kts | 123° |
| 2026-05-06 18:51 | 33.99497 | -99.56590 | 37049 ft | 537 kts | 123° |
| 2026-05-06 18:51 | 33.96923 | -99.48219 | 37051 ft | 537 kts | 123° |
| 2026-05-06 18:52 | 33.94310 | -99.39805 | 37043 ft | 537 kts | 123° |
| 2026-05-06 18:52 | 33.91688 | -99.31388 | 37040 ft | 537 kts | 123° |
| 2026-05-06 18:53 | 33.89064 | -99.22978 | 37039 ft | 537 kts | 123° |
| 2026-05-06 18:53 | 33.86450 | -99.14633 | 37048 ft | 535 kts | 123° |
| 2026-05-06 18:54 | 33.83821 | -99.06254 | 37044 ft | 536 kts | 123° |
| 2026-05-06 18:54 | 33.81178 | -98.97862 | 37044 ft | 536 kts | 123° |
| 2026-05-06 18:55 | 33.78533 | -98.89481 | 37053 ft | 536 kts | 123° |
| 2026-05-06 18:55 | 33.75884 | -98.81115 | 36948 ft | 535 kts | 123° |
| 2026-05-06 18:55 | 33.74555 | -98.76927 | 36344 ft | 539 kts | 123° |
| 2026-05-06 18:56 | 33.73238 | -98.72778 | 35681 ft | 534 kts | 123° |
| 2026-05-06 18:56 | 33.71947 | -98.68653 | 35045 ft | 522 kts | 123° |
| 2026-05-06 18:56 | 33.70682 | -98.64626 | 34436 ft | 509 kts | 123° |
| 2026-05-06 18:56 | 33.69433 | -98.60713 | 33798 ft | 496 kts | 124° |
| 2026-05-06 18:57 | 33.68213 | -98.56895 | 33197 ft | 484 kts | 124° |
| 2026-05-06 18:57 | 33.67016 | -98.53139 | 32631 ft | 479 kts | 124° |
| 2026-05-06 18:57 | 33.65828 | -98.49415 | 32014 ft | 478 kts | 123° |
| 2026-05-06 18:57 | 33.64649 | -98.45710 | 31487 ft | 472 kts | 123° |
| 2026-05-06 18:58 | 33.63494 | -98.42087 | 30950 ft | 472 kts | 123° |
| 2026-05-06 18:58 | 33.62310 | -98.38404 | 30306 ft | 473 kts | 123° |
| 2026-05-06 18:58 | 33.61152 | -98.34767 | 29676 ft | 461 kts | 123° |
| 2026-05-06 18:58 | 33.60029 | -98.31224 | 29140 ft | 447 kts | 123° |
| 2026-05-06 18:59 | 33.58924 | -98.27784 | 28609 ft | 438 kts | 123° |
| 2026-05-06 18:59 | 33.57821 | -98.24395 | 28102 ft | 437 kts | 123° |
| 2026-05-06 18:59 | 33.56713 | -98.20978 | 27597 ft | 439 kts | 122° |
| 2026-05-06 18:59 | 33.55644 | -98.17601 | 27424 ft | 430 kts | 122° |
| 2026-05-06 19:00 | 33.54562 | -98.14235 | 26938 ft | 435 kts | 122° |
| 2026-05-06 19:00 | 33.53458 | -98.10848 | 26137 ft | 438 kts | 122° |
| 2026-05-06 19:00 | 33.52370 | -98.07488 | 25197 ft | 438 kts | 121° |
| 2026-05-06 19:00 | 33.51304 | -98.04135 | 24727 ft | 423 kts | 121° |
| 2026-05-06 19:01 | 33.50267 | -98.00903 | 24186 ft | 411 kts | 121° |
| 2026-05-06 19:01 | 33.49232 | -97.97745 | 23651 ft | 407 kts | 121° |
| 2026-05-06 19:01 | 33.48197 | -97.94588 | 23077 ft | 406 kts | 121° |
| 2026-05-06 19:01 | 33.47186 | -97.91451 | 22532 ft | 401 kts | 120° |
| 2026-05-06 19:02 | 33.46191 | -97.88345 | 22013 ft | 400 kts | 120° |
| 2026-05-06 19:02 | 33.45200 | -97.85252 | 21485 ft | 395 kts | 121° |
| 2026-05-06 19:02 | 33.44223 | -97.82223 | 20979 ft | 394 kts | 120° |
| 2026-05-06 19:02 | 33.43239 | -97.79174 | 20437 ft | 391 kts | 121° |
| 2026-05-06 19:03 | 33.42262 | -97.76144 | 19939 ft | 390 kts | 121° |
| 2026-05-06 19:03 | 33.41288 | -97.73126 | 19419 ft | 387 kts | 121° |
| 2026-05-06 19:03 | 33.40322 | -97.70134 | 18912 ft | 384 kts | 121° |
| 2026-05-06 19:03 | 33.39363 | -97.67170 | 18405 ft | 381 kts | 121° |
| 2026-05-06 19:04 | 33.38285 | -97.64338 | 17869 ft | 362 kts | 137° |
| 2026-05-06 19:04 | 33.36706 | -97.62141 | 17398 ft | 342 kts | 146° |
| 2026-05-06 19:04 | 33.35024 | -97.60162 | 16930 ft | 337 kts | 148° |
| 2026-05-06 19:04 | 33.33345 | -97.58238 | 16482 ft | 332 kts | 147° |
| 2026-05-06 19:05 | 33.31701 | -97.56315 | 16026 ft | 330 kts | 146° |
| 2026-05-06 19:05 | 33.30101 | -97.54418 | 15593 ft | 327 kts | 146° |
| 2026-05-06 19:05 | 33.28499 | -97.52526 | 15166 ft | 323 kts | 146° |
| 2026-05-06 19:05 | 33.26900 | -97.50655 | 14817 ft | 318 kts | 146° |
| 2026-05-06 19:06 | 33.25317 | -97.48807 | 14527 ft | 320 kts | 145° |
| 2026-05-06 19:06 | 33.23741 | -97.46958 | 14217 ft | 314 kts | 145° |
| 2026-05-06 19:06 | 33.22192 | -97.45140 | 13914 ft | 313 kts | 144° |
| 2026-05-06 19:06 | 33.20657 | -97.43345 | 13608 ft | 309 kts | 144° |
| 2026-05-06 19:07 | 33.19100 | -97.41526 | 13310 ft | 312 kts | 144° |
| 2026-05-06 19:07 | 33.17588 | -97.39757 | 13008 ft | 307 kts | 143° |
| 2026-05-06 19:07 | 33.16051 | -97.37961 | 12718 ft | 309 kts | 143° |
| 2026-05-06 19:07 | 33.14555 | -97.36207 | 12409 ft | 295 kts | 143° |
| 2026-05-06 19:08 | 33.13124 | -97.34530 | 12125 ft | 284 kts | 143° |
| 2026-05-06 19:08 | 33.11696 | -97.32876 | 12011 ft | 289 kts | 143° |
| 2026-05-06 19:08 | 33.10247 | -97.31191 | 12002 ft | 290 kts | 143° |
| 2026-05-06 19:08 | 33.08803 | -97.29500 | 12005 ft | 293 kts | 143° |
| 2026-05-06 19:09 | 33.07352 | -97.27801 | 12015 ft | 292 kts | 143° |
| 2026-05-06 19:09 | 33.05896 | -97.26105 | 12006 ft | 293 kts | 143° |
| 2026-05-06 19:09 | 33.04441 | -97.24410 | 12021 ft | 293 kts | 143° |
| 2026-05-06 19:09 | 33.03000 | -97.22732 | 12019 ft | 293 kts | 143° |
| 2026-05-06 19:10 | 33.01552 | -97.21041 | 12003 ft | 288 kts | 143° |
| 2026-05-06 19:10 | 33.00164 | -97.19416 | 11981 ft | 270 kts | 143° |
| 2026-05-06 19:10 | 32.98839 | -97.17917 | 11985 ft | 257 kts | 154° |
| 2026-05-06 19:10 | 32.97286 | -97.17093 | 12001 ft | 240 kts | 178° |
| 2026-05-06 19:11 | 32.95673 | -97.16935 | 12013 ft | 233 kts | 185° |
| 2026-05-06 19:11 | 32.94056 | -97.16855 | 12001 ft | 232 kts | 185° |
| 2026-05-06 19:11 | 32.92433 | -97.16769 | 12000 ft | 234 kts | 184° |
| 2026-05-06 19:11 | 32.90832 | -97.16679 | 11998 ft | 233 kts | 184° |
| 2026-05-06 19:12 | 32.89209 | -97.16589 | 12004 ft | 234 kts | 184° |
| 2026-05-06 19:12 | 32.87584 | -97.16500 | 12000 ft | 234 kts | 184° |
| 2026-05-06 19:12 | 32.85960 | -97.16411 | 11999 ft | 234 kts | 184° |
| 2026-05-06 19:12 | 32.84336 | -97.16321 | 11999 ft | 234 kts | 184° |
| 2026-05-06 19:13 | 32.82709 | -97.16232 | 11998 ft | 234 kts | 184° |
| 2026-05-06 19:13 | 32.81087 | -97.16142 | 11994 ft | 234 kts | 184° |
| 2026-05-06 19:13 | 32.79465 | -97.16080 | 12019 ft | 231 kts | 188° |
| 2026-05-06 19:13 | 32.77840 | -97.16097 | 11854 ft | 236 kts | 186° |
| 2026-05-06 19:14 | 32.76205 | -97.16086 | 11507 ft | 240 kts | 186° |
| 2026-05-06 19:14 | 32.74530 | -97.16078 | 11143 ft | 241 kts | 186° |
| 2026-05-06 19:14 | 32.72848 | -97.16079 | 10789 ft | 243 kts | 185° |
| 2026-05-06 19:14 | 32.71155 | -97.16081 | 10409 ft | 244 kts | 185° |
| 2026-05-06 19:15 | 32.69453 | -97.16081 | 9961 ft | 246 kts | 184° |
| 2026-05-06 19:15 | 32.67741 | -97.16080 | 9484 ft | 246 kts | 185° |
| 2026-05-06 19:15 | 32.66028 | -97.16080 | 9042 ft | 245 kts | 185° |
| 2026-05-06 19:15 | 32.64323 | -97.16080 | 8607 ft | 244 kts | 184° |
| 2026-05-06 19:16 | 32.62633 | -97.16080 | 8184 ft | 242 kts | 184° |
| 2026-05-06 19:16 | 32.60971 | -97.16080 | 7764 ft | 241 kts | 184° |
| 2026-05-06 19:16 | 32.59302 | -97.16080 | 7355 ft | 239 kts | 184° |
| 2026-05-06 19:16 | 32.57641 | -97.16079 | 6948 ft | 238 kts | 184° |
| 2026-05-06 19:17 | 32.55998 | -97.16080 | 6611 ft | 234 kts | 184° |
| 2026-05-06 19:17 | 32.54407 | -97.16072 | 6428 ft | 223 kts | 179° |
| 2026-05-06 19:17 | 32.52998 | -97.15341 | 6164 ft | 231 kts | 135° |
| 2026-05-06 19:17 | 32.52293 | -97.13637 | 5955 ft | 235 kts | 104° |
| 2026-05-06 19:18 | 32.52053 | -97.11719 | 5677 ft | 236 kts | 98° |
| 2026-05-06 19:18 | 32.51903 | -97.09817 | 5444 ft | 234 kts | 97° |
| 2026-05-06 19:18 | 32.51897 | -97.07892 | 5183 ft | 235 kts | 81° |
| 2026-05-06 19:18 | 32.52452 | -97.06064 | 4810 ft | 239 kts | 54° |
| 2026-05-06 19:19 | 32.53699 | -97.04818 | 4422 ft | 237 kts | 14° |
| 2026-05-06 19:19 | 32.55295 | -97.04427 | 4119 ft | 233 kts | 3° |
| 2026-05-06 19:19 | 32.56824 | -97.04676 | 4087 ft | 217 kts | 336° |
| 2026-05-06 19:19 | 32.58256 | -97.05317 | 4041 ft | 220 kts | 340° |
| 2026-05-06 19:20 | 32.59739 | -97.05666 | 4040 ft | 218 kts | 1° |
| 2026-05-06 19:20 | 32.61280 | -97.05605 | 4034 ft | 223 kts | 359° |
| 2026-05-06 19:20 | 32.62798 | -97.05605 | 4034 ft | 220 kts | 358° |
| 2026-05-06 19:20 | 32.64325 | -97.05607 | 4034 ft | 219 kts | 358° |
| 2026-05-06 19:21 | 32.65859 | -97.05601 | 4029 ft | 221 kts | 358° |
| 2026-05-06 19:21 | 32.67374 | -97.05591 | 4023 ft | 214 kts | 357° |
| 2026-05-06 19:21 | 32.68873 | -97.05584 | 4063 ft | 210 kts | 357° |
| 2026-05-06 19:21 | 32.70237 | -97.05575 | 4027 ft | 186 kts | 358° |
| 2026-05-06 19:22 | 32.71531 | -97.05570 | 3855 ft | 184 kts | 359° |
| 2026-05-06 19:22 | 32.72795 | -97.05564 | 3618 ft | 181 kts | 0° |
| 2026-05-06 19:22 | 32.74044 | -97.05560 | 3383 ft | 178 kts | 2° |
| 2026-05-06 19:22 | 32.75238 | -97.05556 | 3142 ft | 171 kts | 2° |
| 2026-05-06 19:23 | 32.76439 | -97.05549 | 2916 ft | 172 kts | 3° |
| 2026-05-06 19:23 | 32.77611 | -97.05543 | 2688 ft | 168 kts | 4° |
| 2026-05-06 19:23 | 32.78776 | -97.05533 | 2463 ft | 167 kts | 2° |
| 2026-05-06 19:23 | 32.79921 | -97.05527 | 2208 ft | 162 kts | 2° |
| 2026-05-06 19:24 | 32.81046 | -97.05518 | 1994 ft | 161 kts | 1° |
| 2026-05-06 19:24 | 32.82160 | -97.05512 | 1776 ft | 159 kts | 1° |
| 2026-05-06 19:24 | 32.83270 | -97.05506 | 1553 ft | 160 kts | 1° |
| 2026-05-06 19:24 | 32.84395 | -97.05498 | 1331 ft | 163 kts | 1° |
| 2026-05-06 19:25 | 32.85519 | -97.05492 | 1105 ft | 164 kts | 359° |
| 2026-05-06 19:25 | 32.86647 | -97.05492 | 894 ft | 159 kts | 2° |
| 2026-05-06 19:25 | 32.87761 | -97.05481 | 661 ft | 162 kts | 0° |
| 2026-05-06 19:25 | 32.88766 | -97.05477 | 630 ft | 126 kts | 1° |
| 2026-05-06 19:26 | 32.89476 | -97.05475 | 599 ft | 78 kts | 360° |
| 2026-05-06 19:26 | 32.89885 | -97.05430 | 599 ft | 34 kts | 26° |
| 2026-05-06 19:26 | 32.89962 | -97.05382 | 599 ft | 0 kts | 26° |
| 2026-05-06 19:27 | 32.89973 | -97.05376 | 599 ft | 4 kts | 27° |
| 2026-05-06 19:27 | 32.90023 | -97.05343 | 599 ft | 12 kts | 33° |
| 2026-05-06 19:27 | 32.90096 | -97.05264 | 599 ft | 16 kts | 54° |
| 2026-05-06 19:27 | 32.90117 | -97.05124 | 599 ft | 19 kts | 90° |
| 2026-05-06 19:28 | 32.90116 | -97.04951 | 599 ft | 23 kts | 90° |
| 2026-05-06 19:28 | 32.90113 | -97.04774 | 599 ft | 22 kts | 95° |
| 2026-05-06 19:28 | 32.90083 | -97.04665 | 599 ft | 12 kts | 89° |
| 2026-05-06 19:28 | 32.90084 | -97.04580 | 599 ft | 5 kts | 90° |
| 2026-05-06 19:29 | 32.90071 | -97.04539 | 599 ft | 6 kts | 129° |
| 2026-05-06 19:29 | 32.90035 | -97.04533 | 599 ft | 7 kts | 177° |
| 2026-05-06 19:29 | 32.90004 | -97.04532 | 599 ft | 0 kts | 178° |